sensor_id;sensor_type;location;lat;lon;timestamp;pressure;altitude;pressure_sealevel;temperature;humidity
18749;BME280;9503;53.560;10.246;2024-03-08T00:01:13;101768.69;;;7.48;68.56
18749;BME280;9503;53.560;10.246;2024-03-08T00:03:43;101764.78;;;7.41;68.54
18749;BME280;9503;53.560;10.246;2024-03-08T00:06:09;101766.00;;;7.35;68.95
18749;BME280;9503;53.560;10.246;2024-03-08T00:08:36;101759.22;;;7.35;68.55
18749;BME280;9503;53.560;10.246;2024-03-08T00:11:03;101754.13;;;7.35;68.34
18749;BME280;9503;53.560;10.246;2024-03-08T00:13:30;101752.16;;;7.43;68.41
18749;BME280;9503;53.560;10.246;2024-03-08T00:15:56;101749.66;;;7.11;69.40
18749;BME280;9503;53.560;10.246;2024-03-08T00:18:23;101748.44;;;7.28;68.85
18749;BME280;9503;53.560;10.246;2024-03-08T00:20:51;101746.94;;;7.19;69.30
18749;BME280;9503;53.560;10.246;2024-03-08T00:23:18;101741.13;;;7.10;69.50
18749;BME280;9503;53.560;10.246;2024-03-08T00:25:44;101744.09;;;7.27;68.94
18749;BME280;9503;53.560;10.246;2024-03-08T00:28:11;101743.63;;;7.20;68.97
18749;BME280;9503;53.560;10.246;2024-03-08T00:30:40;101742.78;;;7.10;70.02
18749;BME280;9503;53.560;10.246;2024-03-08T00:33:08;101744.53;;;7.21;68.86
18749;BME280;9503;53.560;10.246;2024-03-08T00:35:34;101743.69;;;7.32;69.26
18749;BME280;9503;53.560;10.246;2024-03-08T00:38:02;101743.38;;;7.17;69.61
18749;BME280;9503;53.560;10.246;2024-03-08T00:40:29;101743.19;;;7.04;69.04
18749;BME280;9503;53.560;10.246;2024-03-08T00:42:56;101745.41;;;7.22;69.97
18749;BME280;9503;53.560;10.246;2024-03-08T00:45:22;101743.63;;;7.20;69.80
18749;BME280;9503;53.560;10.246;2024-03-08T00:47:49;101738.75;;;7.02;70.40
18749;BME280;9503;53.560;10.246;2024-03-08T00:50:16;101736.09;;;7.00;70.24
18749;BME280;9503;53.560;10.246;2024-03-08T00:52:43;101734.84;;;7.17;70.11
18749;BME280;9503;53.560;10.246;2024-03-08T00:55:11;101734.25;;;7.09;69.91
18749;BME280;9503;53.560;10.246;2024-03-08T00:57:37;101727.56;;;7.22;69.52
18749;BME280;9503;53.560;10.246;2024-03-08T01:00:06;101730.78;;;6.87;70.92
18749;BME280;9503;53.560;10.246;2024-03-08T01:02:37;101724.22;;;7.01;70.14
18749;BME280;9503;53.560;10.246;2024-03-08T01:05:04;101724.59;;;6.73;71.44
18749;BME280;9503;53.560;10.246;2024-03-08T01:07:32;101719.94;;;6.89;71.08
18749;BME280;9503;53.560;10.246;2024-03-08T01:09:59;101717.72;;;6.72;71.25
18749;BME280;9503;53.560;10.246;2024-03-08T01:12:28;101713.34;;;6.81;71.91
18749;BME280;9503;53.560;10.246;2024-03-08T01:14:55;101716.41;;;7.09;69.53
18749;BME280;9503;53.560;10.246;2024-03-08T01:17:23;101712.44;;;6.91;70.18
18749;BME280;9503;53.560;10.246;2024-03-08T01:19:50;101708.72;;;6.87;70.69
18749;BME280;9503;53.560;10.246;2024-03-08T01:22:16;101701.47;;;6.92;70.42
18749;BME280;9503;53.560;10.246;2024-03-08T01:24:43;101697.03;;;6.79;70.33
18749;BME280;9503;53.560;10.246;2024-03-08T01:27:10;101696.53;;;6.83;70.95
18749;BME280;9503;53.560;10.246;2024-03-08T01:29:39;101687.16;;;6.40;72.80
18749;BME280;9503;53.560;10.246;2024-03-08T01:32:05;101679.72;;;6.75;71.13
18749;BME280;9503;53.560;10.246;2024-03-08T01:34:32;101689.22;;;6.88;70.80
18749;BME280;9503;53.560;10.246;2024-03-08T01:36:59;101675.84;;;6.69;70.87
18749;BME280;9503;53.560;10.246;2024-03-08T01:39:26;101674.25;;;6.49;71.66
18749;BME280;9503;53.560;10.246;2024-03-08T01:41:52;101673.22;;;6.79;71.15
18749;BME280;9503;53.560;10.246;2024-03-08T01:44:20;101659.28;;;6.63;70.63
18749;BME280;9503;53.560;10.246;2024-03-08T01:46:50;101661.13;;;6.54;70.99
18749;BME280;9503;53.560;10.246;2024-03-08T01:49:18;101658.50;;;6.64;71.17
18749;BME280;9503;53.560;10.246;2024-03-08T01:51:47;101650.94;;;6.76;70.83
18749;BME280;9503;53.560;10.246;2024-03-08T01:54:16;101655.91;;;6.75;70.71
18749;BME280;9503;53.560;10.246;2024-03-08T01:56:45;101653.31;;;6.85;70.81
18749;BME280;9503;53.560;10.246;2024-03-08T01:59:13;101646.31;;;6.82;69.93
18749;BME280;9503;53.560;10.246;2024-03-08T02:01:40;101643.59;;;6.91;69.65
18749;BME280;9503;53.560;10.246;2024-03-08T02:04:08;101646.13;;;6.47;70.87
18749;BME280;9503;53.560;10.246;2024-03-08T02:06:37;101642.03;;;6.49;71.47
18749;BME280;9503;53.560;10.246;2024-03-08T02:09:04;101647.19;;;6.29;71.59
18749;BME280;9503;53.560;10.246;2024-03-08T02:11:33;101640.75;;;6.44;71.53
18749;BME280;9503;53.560;10.246;2024-03-08T02:14:01;101644.00;;;6.63;71.20
18749;BME280;9503;53.560;10.246;2024-03-08T02:16:27;101640.88;;;6.78;70.31
18749;BME280;9503;53.560;10.246;2024-03-08T02:18:54;101637.72;;;6.70;70.36
18749;BME280;9503;53.560;10.246;2024-03-08T02:21:23;101632.06;;;6.52;70.71
18749;BME280;9503;53.560;10.246;2024-03-08T02:23:49;101632.53;;;6.58;70.93
18749;BME280;9503;53.560;10.246;2024-03-08T02:26:17;101629.53;;;6.74;70.58
18749;BME280;9503;53.560;10.246;2024-03-08T02:28:44;101635.66;;;6.76;69.79
18749;BME280;9503;53.560;10.246;2024-03-08T02:31:11;101626.44;;;6.56;70.47
18749;BME280;9503;53.560;10.246;2024-03-08T02:33:38;101629.72;;;6.65;70.20
18749;BME280;9503;53.560;10.246;2024-03-08T02:36:06;101628.13;;;6.56;70.62
18749;BME280;9503;53.560;10.246;2024-03-08T02:38:34;101628.69;;;6.42;71.01
18749;BME280;9503;53.560;10.246;2024-03-08T02:41:00;101630.13;;;6.28;71.69
18749;BME280;9503;53.560;10.246;2024-03-08T02:43:29;101628.19;;;6.35;72.07
18749;BME280;9503;53.560;10.246;2024-03-08T02:45:56;101621.22;;;6.23;71.87
18749;BME280;9503;53.560;10.246;2024-03-08T02:48:22;101628.00;;;6.76;70.49
18749;BME280;9503;53.560;10.246;2024-03-08T02:50:49;101622.88;;;6.32;70.68
18749;BME280;9503;53.560;10.246;2024-03-08T02:53:17;101621.94;;;6.42;71.04
18749;BME280;9503;53.560;10.246;2024-03-08T02:55:46;101623.53;;;6.74;69.64
18749;BME280;9503;53.560;10.246;2024-03-08T02:58:12;101616.84;;;6.42;69.86
18749;BME280;9503;53.560;10.246;2024-03-08T03:00:40;101617.91;;;6.56;69.98
18749;BME280;9503;53.560;10.246;2024-03-08T03:03:07;101616.78;;;6.52;70.49
18749;BME280;9503;53.560;10.246;2024-03-08T03:05:33;101609.41;;;6.45;70.25
18749;BME280;9503;53.560;10.246;2024-03-08T03:08:00;101611.88;;;6.65;69.83
18749;BME280;9503;53.560;10.246;2024-03-08T03:10:29;101605.50;;;6.38;70.54
18749;BME280;9503;53.560;10.246;2024-03-08T03:12:57;101609.94;;;6.19;70.90
18749;BME280;9503;53.560;10.246;2024-03-08T03:15:24;101604.34;;;6.13;71.32
18749;BME280;9503;53.560;10.246;2024-03-08T03:17:51;101610.41;;;6.25;71.19
18749;BME280;9503;53.560;10.246;2024-03-08T03:20:18;101606.94;;;6.35;70.73
18749;BME280;9503;53.560;10.246;2024-03-08T03:22:51;101604.16;;;6.22;70.23
18749;BME280;9503;53.560;10.246;2024-03-08T03:25:18;101601.88;;;6.25;71.19
18749;BME280;9503;53.560;10.246;2024-03-08T03:27:50;101604.59;;;6.48;70.60
18749;BME280;9503;53.560;10.246;2024-03-08T03:30:18;101601.34;;;6.29;70.91
18749;BME280;9503;53.560;10.246;2024-03-08T03:32:48;101605.31;;;6.25;71.66
18749;BME280;9503;53.560;10.246;2024-03-08T03:35:16;101595.50;;;6.52;70.65
18749;BME280;9503;53.560;10.246;2024-03-08T03:37:43;101604.28;;;6.55;70.21
18749;BME280;9503;53.560;10.246;2024-03-08T03:40:16;101608.22;;;6.30;70.18
18749;BME280;9503;53.560;10.246;2024-03-08T03:42:44;101603.09;;;6.40;70.82
18749;BME280;9503;53.560;10.246;2024-03-08T03:45:11;101600.56;;;6.62;69.81
18749;BME280;9503;53.560;10.246;2024-03-08T03:47:42;101597.88;;;6.60;69.90
18749;BME280;9503;53.560;10.246;2024-03-08T03:50:09;101597.84;;;6.38;70.31
18749;BME280;9503;53.560;10.246;2024-03-08T03:52:35;101598.59;;;6.48;70.63
18749;BME280;9503;53.560;10.246;2024-03-08T03:55:02;101590.59;;;6.43;69.98
18749;BME280;9503;53.560;10.246;2024-03-08T03:57:29;101596.34;;;6.41;69.92
18749;BME280;9503;53.560;10.246;2024-03-08T03:59:56;101592.13;;;6.41;70.29
18749;BME280;9503;53.560;10.246;2024-03-08T04:02:23;101600.28;;;6.37;69.92
18749;BME280;9503;53.560;10.246;2024-03-08T04:04:53;101600.06;;;6.34;70.15
18749;BME280;9503;53.560;10.246;2024-03-08T04:07:20;101603.19;;;6.09;70.85
18749;BME280;9503;53.560;10.246;2024-03-08T04:09:47;101599.94;;;6.32;70.76
18749;BME280;9503;53.560;10.246;2024-03-08T04:12:14;101596.53;;;6.22;70.53
18749;BME280;9503;53.560;10.246;2024-03-08T04:14:42;101596.66;;;6.23;70.63
18749;BME280;9503;53.560;10.246;2024-03-08T04:17:09;101601.41;;;6.08;70.84
18749;BME280;9503;53.560;10.246;2024-03-08T04:19:36;101601.34;;;6.29;70.72
18749;BME280;9503;53.560;10.246;2024-03-08T04:22:05;101595.78;;;5.60;72.68
18749;BME280;9503;53.560;10.246;2024-03-08T04:24:32;101590.00;;;5.93;72.14
18749;BME280;9503;53.560;10.246;2024-03-08T04:26:59;101590.56;;;5.69;72.36
18749;BME280;9503;53.560;10.246;2024-03-08T04:29:26;101590.13;;;5.95;72.03
18749;BME280;9503;53.560;10.246;2024-03-08T04:31:52;101591.66;;;5.93;72.15
18749;BME280;9503;53.560;10.246;2024-03-08T04:34:19;101589.94;;;6.14;71.37
18749;BME280;9503;53.560;10.246;2024-03-08T04:36:46;101588.50;;;5.75;72.57
18749;BME280;9503;53.560;10.246;2024-03-08T04:39:14;101588.22;;;5.92;72.40
18749;BME280;9503;53.560;10.246;2024-03-08T04:41:41;101587.47;;;5.93;72.00
18749;BME280;9503;53.560;10.246;2024-03-08T04:44:09;101587.28;;;6.12;71.22
18749;BME280;9503;53.560;10.246;2024-03-08T04:46:38;101589.22;;;6.04;70.96
18749;BME280;9503;53.560;10.246;2024-03-08T04:49:04;101572.50;;;6.18;71.67
18749;BME280;9503;53.560;10.246;2024-03-08T04:51:32;101576.97;;;6.43;71.37
18749;BME280;9503;53.560;10.246;2024-03-08T04:53:59;101581.59;;;6.04;70.96
18749;BME280;9503;53.560;10.246;2024-03-08T04:56:27;101572.06;;;5.92;71.67
18749;BME280;9503;53.560;10.246;2024-03-08T04:58:54;101570.94;;;5.78;73.00
18749;BME280;9503;53.560;10.246;2024-03-08T05:01:20;101567.59;;;5.89;72.43
18749;BME280;9503;53.560;10.246;2024-03-08T05:03:47;101565.00;;;5.67;73.10
18749;BME280;9503;53.560;10.246;2024-03-08T05:06:16;101565.13;;;5.48;73.89
18749;BME280;9503;53.560;10.246;2024-03-08T05:08:43;101561.25;;;5.84;73.09
18749;BME280;9503;53.560;10.246;2024-03-08T05:11:10;101564.28;;;5.90;72.84
18749;BME280;9503;53.560;10.246;2024-03-08T05:13:41;101558.72;;;5.84;72.08
18749;BME280;9503;53.560;10.246;2024-03-08T05:16:08;101565.06;;;5.89;72.73
18749;BME280;9503;53.560;10.246;2024-03-08T05:18:35;101565.22;;;5.80;72.67
18749;BME280;9503;53.560;10.246;2024-03-08T05:21:02;101562.91;;;5.94;71.87
18749;BME280;9503;53.560;10.246;2024-03-08T05:23:29;101559.38;;;5.81;72.56
18749;BME280;9503;53.560;10.246;2024-03-08T05:25:56;101554.88;;;5.89;71.89
18749;BME280;9503;53.560;10.246;2024-03-08T05:28:22;101558.13;;;5.56;72.97
18749;BME280;9503;53.560;10.246;2024-03-08T05:30:50;101558.75;;;5.74;73.06
18749;BME280;9503;53.560;10.246;2024-03-08T05:33:17;101555.53;;;5.76;72.80
18749;BME280;9503;53.560;10.246;2024-03-08T05:35:44;101556.91;;;5.93;72.32
18749;BME280;9503;53.560;10.246;2024-03-08T05:38:11;101562.47;;;6.09;71.62
18749;BME280;9503;53.560;10.246;2024-03-08T05:40:38;101553.03;;;6.19;70.78
18749;BME280;9503;53.560;10.246;2024-03-08T05:43:04;101557.59;;;5.70;71.79
18749;BME280;9503;53.560;10.246;2024-03-08T05:45:31;101549.88;;;5.59;73.06
18749;BME280;9503;53.560;10.246;2024-03-08T05:48:01;101556.59;;;5.58;73.93
18749;BME280;9503;53.560;10.246;2024-03-08T05:50:27;101550.94;;;5.93;72.94
18749;BME280;9503;53.560;10.246;2024-03-08T05:52:54;101549.50;;;6.06;71.25
18749;BME280;9503;53.560;10.246;2024-03-08T05:55:21;101550.00;;;5.50;73.19
18749;BME280;9503;53.560;10.246;2024-03-08T05:57:49;101557.41;;;5.99;72.36
18749;BME280;9503;53.560;10.246;2024-03-08T06:00:17;101557.44;;;5.89;72.02
18749;BME280;9503;53.560;10.246;2024-03-08T06:02:44;101559.19;;;5.90;72.28
18749;BME280;9503;53.560;10.246;2024-03-08T06:05:12;101552.03;;;6.06;71.59
18749;BME280;9503;53.560;10.246;2024-03-08T06:07:39;101554.91;;;5.79;72.38
18749;BME280;9503;53.560;10.246;2024-03-08T06:10:08;101553.75;;;5.96;72.62
18749;BME280;9503;53.560;10.246;2024-03-08T06:12:36;101557.69;;;6.02;71.66
18749;BME280;9503;53.560;10.246;2024-03-08T06:15:06;101550.56;;;5.78;72.57
18749;BME280;9503;53.560;10.246;2024-03-08T06:17:34;101558.97;;;5.77;72.42
18749;BME280;9503;53.560;10.246;2024-03-08T06:20:00;101559.59;;;5.95;71.54
18749;BME280;9503;53.560;10.246;2024-03-08T06:22:29;101561.75;;;5.80;72.78
18749;BME280;9503;53.560;10.246;2024-03-08T06:24:56;101564.94;;;5.77;72.45
18749;BME280;9503;53.560;10.246;2024-03-08T06:27:22;101561.56;;;5.57;74.12
18749;BME280;9503;53.560;10.246;2024-03-08T06:29:49;101562.09;;;5.52;73.86
18749;BME280;9503;53.560;10.246;2024-03-08T06:32:16;101558.31;;;6.00;72.94
18749;BME280;9503;53.560;10.246;2024-03-08T06:34:42;101552.38;;;6.21;71.85
18749;BME280;9503;53.560;10.246;2024-03-08T06:37:09;101547.53;;;5.82;72.55
18749;BME280;9503;53.560;10.246;2024-03-08T06:39:37;101553.31;;;6.01;72.24
18749;BME280;9503;53.560;10.246;2024-03-08T06:42:03;101548.63;;;6.06;73.43
18749;BME280;9503;53.560;10.246;2024-03-08T06:44:31;101539.56;;;6.31;73.23
18749;BME280;9503;53.560;10.246;2024-03-08T06:46:58;101545.53;;;6.42;72.97
18749;BME280;9503;53.560;10.246;2024-03-08T06:49:25;101544.56;;;7.19;71.76
18749;BME280;9503;53.560;10.246;2024-03-08T06:51:52;101545.97;;;7.84;72.13
18749;BME280;9503;53.560;10.246;2024-03-08T06:54:18;101545.88;;;7.59;70.79
18749;BME280;9503;53.560;10.246;2024-03-08T06:56:46;101544.72;;;8.14;69.52
18749;BME280;9503;53.560;10.246;2024-03-08T06:59:13;101546.53;;;8.15;67.79
18749;BME280;9503;53.560;10.246;2024-03-08T07:01:40;101546.53;;;7.92;67.51
18749;BME280;9503;53.560;10.246;2024-03-08T07:04:06;101547.69;;;8.32;67.75
18749;BME280;9503;53.560;10.246;2024-03-08T07:06:33;101542.66;;;7.73;68.25
18749;BME280;9503;53.560;10.246;2024-03-08T07:09:00;101544.88;;;7.57;68.51
18749;BME280;9503;53.560;10.246;2024-03-08T07:11:27;101549.41;;;8.08;67.63
18749;BME280;9503;53.560;10.246;2024-03-08T07:13:55;101548.72;;;7.99;66.69
18749;BME280;9503;53.560;10.246;2024-03-08T07:16:23;101548.28;;;7.46;66.96
18749;BME280;9503;53.560;10.246;2024-03-08T07:18:50;101547.13;;;7.07;68.26
18749;BME280;9503;53.560;10.246;2024-03-08T07:21:18;101546.06;;;7.62;66.53
18749;BME280;9503;53.560;10.246;2024-03-08T07:23:45;101547.03;;;7.17;68.61
18749;BME280;9503;53.560;10.246;2024-03-08T07:26:38;101539.09;;;7.60;68.41
18749;BME280;9503;53.560;10.246;2024-03-08T07:29:06;101549.63;;;7.76;68.20
18749;BME280;9503;53.560;10.246;2024-03-08T07:31:33;101549.88;;;7.10;68.97
18749;BME280;9503;53.560;10.246;2024-03-08T07:34:10;101548.63;;;7.97;67.24
18749;BME280;9503;53.560;10.246;2024-03-08T07:36:37;101547.81;;;8.95;66.05
18749;BME280;9503;53.560;10.246;2024-03-08T07:39:04;101544.78;;;9.39;63.89
18749;BME280;9503;53.560;10.246;2024-03-08T07:41:36;101544.00;;;9.53;64.22
18749;BME280;9503;53.560;10.246;2024-03-08T07:44:06;101542.28;;;9.92;62.29
18749;BME280;9503;53.560;10.246;2024-03-08T07:46:33;101545.63;;;9.13;61.89
18749;BME280;9503;53.560;10.246;2024-03-08T07:49:00;101546.66;;;9.41;63.33
18749;BME280;9503;53.560;10.246;2024-03-08T07:51:27;101544.19;;;8.67;63.78
18749;BME280;9503;53.560;10.246;2024-03-08T07:53:53;101545.03;;;8.30;65.47
18749;BME280;9503;53.560;10.246;2024-03-08T07:56:20;101544.94;;;9.16;64.12
18749;BME280;9503;53.560;10.246;2024-03-08T07:58:47;101544.97;;;8.91;64.03
18749;BME280;9503;53.560;10.246;2024-03-08T08:01:17;101543.84;;;9.63;62.23
18749;BME280;9503;53.560;10.246;2024-03-08T08:03:45;101541.25;;;9.90;62.08
18749;BME280;9503;53.560;10.246;2024-03-08T08:06:11;101545.00;;;9.42;63.23
18749;BME280;9503;53.560;10.246;2024-03-08T08:08:41;101544.09;;;9.41;62.08
18749;BME280;9503;53.560;10.246;2024-03-08T08:11:07;101535.38;;;9.13;63.21
18749;BME280;9503;53.560;10.246;2024-03-08T08:13:35;101536.50;;;8.18;65.49
18749;BME280;9503;53.560;10.246;2024-03-08T08:16:02;101536.63;;;8.68;64.87
18749;BME280;9503;53.560;10.246;2024-03-08T08:18:30;101525.19;;;9.26;64.48
18749;BME280;9503;53.560;10.246;2024-03-08T08:20:58;101532.19;;;9.29;64.02
18749;BME280;9503;53.560;10.246;2024-03-08T08:23:25;101530.41;;;9.28;63.68
18749;BME280;9503;53.560;10.246;2024-03-08T08:25:52;101529.22;;;9.36;64.12
18749;BME280;9503;53.560;10.246;2024-03-08T08:28:18;101528.25;;;8.96;63.85
18749;BME280;9503;53.560;10.246;2024-03-08T08:30:45;101525.53;;;9.71;63.60
18749;BME280;9503;53.560;10.246;2024-03-08T08:33:14;101529.09;;;8.83;64.32
18749;BME280;9503;53.560;10.246;2024-03-08T08:35:42;101534.13;;;8.81;64.88
18749;BME280;9503;53.560;10.246;2024-03-08T08:38:08;101526.44;;;8.81;65.08
18749;BME280;9503;53.560;10.246;2024-03-08T08:40:35;101521.53;;;8.84;65.60
18749;BME280;9503;53.560;10.246;2024-03-08T08:43:05;101526.41;;;9.71;63.01
18749;BME280;9503;53.560;10.246;2024-03-08T08:45:32;101521.91;;;9.16;62.94
18749;BME280;9503;53.560;10.246;2024-03-08T08:47:59;101524.88;;;8.83;63.62
18749;BME280;9503;53.560;10.246;2024-03-08T08:50:26;101523.31;;;8.85;62.98
18749;BME280;9503;53.560;10.246;2024-03-08T08:52:55;101517.34;;;9.63;62.37
18749;BME280;9503;53.560;10.246;2024-03-08T08:55:21;101515.06;;;8.90;63.17
18749;BME280;9503;53.560;10.246;2024-03-08T08:57:50;101519.06;;;9.24;63.54
18749;BME280;9503;53.560;10.246;2024-03-08T09:00:18;101511.75;;;9.17;63.49
18749;BME280;9503;53.560;10.246;2024-03-08T09:02:46;101513.78;;;9.74;62.70
18749;BME280;9503;53.560;10.246;2024-03-08T09:05:13;101513.75;;;9.21;63.31
18749;BME280;9503;53.560;10.246;2024-03-08T09:07:42;101503.56;;;9.48;63.31
18749;BME280;9503;53.560;10.246;2024-03-08T09:10:11;101508.88;;;9.64;62.80
18749;BME280;9503;53.560;10.246;2024-03-08T09:12:39;101508.88;;;9.51;62.75
18749;BME280;9503;53.560;10.246;2024-03-08T09:15:07;101502.94;;;9.12;63.14
18749;BME280;9503;53.560;10.246;2024-03-08T09:17:36;101496.91;;;9.25;63.82
18749;BME280;9503;53.560;10.246;2024-03-08T09:20:06;101498.13;;;9.83;61.68
18749;BME280;9503;53.560;10.246;2024-03-08T09:22:32;101488.50;;;10.61;61.28
18749;BME280;9503;53.560;10.246;2024-03-08T09:24:59;101492.31;;;10.40;61.09
18749;BME280;9503;53.560;10.246;2024-03-08T09:27:27;101486.72;;;10.32;61.84
18749;BME280;9503;53.560;10.246;2024-03-08T09:29:55;101483.63;;;9.96;61.57
18749;BME280;9503;53.560;10.246;2024-03-08T09:32:21;101480.72;;;10.60;59.99
18749;BME280;9503;53.560;10.246;2024-03-08T09:34:48;101476.94;;;10.83;60.45
18749;BME280;9503;53.560;10.246;2024-03-08T09:37:15;101477.47;;;10.77;60.15
18749;BME280;9503;53.560;10.246;2024-03-08T09:39:42;101470.50;;;10.46;60.06
18749;BME280;9503;53.560;10.246;2024-03-08T09:42:09;101461.81;;;10.30;59.44
18749;BME280;9503;53.560;10.246;2024-03-08T09:44:44;101455.47;;;10.95;58.46
18749;BME280;9503;53.560;10.246;2024-03-08T09:47:13;101456.88;;;11.05;57.48
18749;BME280;9503;53.560;10.246;2024-03-08T09:49:40;101453.66;;;10.79;57.34
18749;BME280;9503;53.560;10.246;2024-03-08T09:52:08;101452.25;;;11.29;56.30
18749;BME280;9503;53.560;10.246;2024-03-08T09:54:35;101452.97;;;11.41;56.46
18749;BME280;9503;53.560;10.246;2024-03-08T09:57:03;101446.41;;;11.77;55.12
18749;BME280;9503;53.560;10.246;2024-03-08T09:59:30;101439.69;;;12.27;54.29
18749;BME280;9503;53.560;10.246;2024-03-08T10:02:15;101436.84;;;11.29;54.83
18749;BME280;9503;53.560;10.246;2024-03-08T10:04:43;101426.66;;;11.91;53.89
18749;BME280;9503;53.560;10.246;2024-03-08T10:07:11;101431.41;;;12.83;53.10
18749;BME280;9503;53.560;10.246;2024-03-08T10:09:38;101424.53;;;11.84;53.31
18749;BME280;9503;53.560;10.246;2024-03-08T10:12:07;101427.31;;;12.20;52.42
18749;BME280;9503;53.560;10.246;2024-03-08T10:14:39;101415.56;;;11.92;53.64
18749;BME280;9503;53.560;10.246;2024-03-08T10:17:06;101422.91;;;12.67;52.27
18749;BME280;9503;53.560;10.246;2024-03-08T10:19:34;101417.34;;;12.42;52.34
18749;BME280;9503;53.560;10.246;2024-03-08T10:22:00;101412.38;;;12.63;51.50
18749;BME280;9503;53.560;10.246;2024-03-08T10:24:30;101407.81;;;12.91;51.70
18749;BME280;9503;53.560;10.246;2024-03-08T10:26:59;101402.22;;;12.82;51.37
18749;BME280;9503;53.560;10.246;2024-03-08T10:29:27;101400.84;;;12.89;50.83
18749;BME280;9503;53.560;10.246;2024-03-08T10:31:54;101398.13;;;13.75;50.63
18749;BME280;9503;53.560;10.246;2024-03-08T10:34:22;101388.59;;;13.54;49.40
18749;BME280;9503;53.560;10.246;2024-03-08T10:36:51;101379.69;;;13.48;50.94
18749;BME280;9503;53.560;10.246;2024-03-08T10:39:22;101384.88;;;12.96;49.88
18749;BME280;9503;53.560;10.246;2024-03-08T10:41:53;101372.94;;;13.69;49.17
18749;BME280;9503;53.560;10.246;2024-03-08T10:44:40;101368.81;;;13.00;50.44
18749;BME280;9503;53.560;10.246;2024-03-08T10:47:17;101373.94;;;13.18;49.30
18749;BME280;9503;53.560;10.246;2024-03-08T10:49:51;101372.22;;;12.83;50.09
18749;BME280;9503;53.560;10.246;2024-03-08T10:52:20;101366.50;;;13.06;49.89
18749;BME280;9503;53.560;10.246;2024-03-08T10:54:48;101358.78;;;12.54;49.66
18749;BME280;9503;53.560;10.246;2024-03-08T10:57:17;101349.09;;;13.93;48.24
18749;BME280;9503;53.560;10.246;2024-03-08T10:59:47;101357.25;;;14.61;46.93
18749;BME280;9503;53.560;10.246;2024-03-08T11:02:16;101347.94;;;14.25;47.56
18749;BME280;9503;53.560;10.246;2024-03-08T11:04:47;101346.50;;;13.93;46.86
18749;BME280;9503;53.560;10.246;2024-03-08T11:07:14;101333.91;;;13.99;47.46
18749;BME280;9503;53.560;10.246;2024-03-08T11:09:44;101334.16;;;14.45;47.39
18749;BME280;9503;53.560;10.246;2024-03-08T11:12:21;101338.75;;;14.72;47.03
18749;BME280;9503;53.560;10.246;2024-03-08T11:14:51;101331.44;;;13.63;48.22
18749;BME280;9503;53.560;10.246;2024-03-08T11:17:21;101320.03;;;13.58;48.45
18749;BME280;9503;53.560;10.246;2024-03-08T11:19:48;101318.34;;;13.78;48.34
18749;BME280;9503;53.560;10.246;2024-03-08T11:22:21;101315.50;;;13.72;47.44
18749;BME280;9503;53.560;10.246;2024-03-08T11:24:51;101314.53;;;14.28;46.63
18749;BME280;9503;53.560;10.246;2024-03-08T11:27:18;101318.63;;;14.44;45.38
18749;BME280;9503;53.560;10.246;2024-03-08T11:29:59;101311.88;;;14.67;45.05
18749;BME280;9503;53.560;10.246;2024-03-08T11:32:27;101295.97;;;13.38;46.18
18749;BME280;9503;53.560;10.246;2024-03-08T11:34:55;101296.50;;;13.31;46.89
18749;BME280;9503;53.560;10.246;2024-03-08T11:37:22;101294.81;;;14.49;45.79
18749;BME280;9503;53.560;10.246;2024-03-08T11:39:51;101292.84;;;14.03;45.07
18749;BME280;9503;53.560;10.246;2024-03-08T11:42:24;101296.22;;;14.22;45.91
18749;BME280;9503;53.560;10.246;2024-03-08T11:44:53;101284.75;;;14.76;44.68
18749;BME280;9503;53.560;10.246;2024-03-08T11:47:20;101282.53;;;14.64;45.27
18749;BME280;9503;53.560;10.246;2024-03-08T11:49:47;101279.03;;;15.06;45.33
18749;BME280;9503;53.560;10.246;2024-03-08T11:52:15;101279.06;;;15.30;45.32
18749;BME280;9503;53.560;10.246;2024-03-08T11:54:43;101272.78;;;15.23;44.24
18749;BME280;9503;53.560;10.246;2024-03-08T11:57:17;101269.38;;;15.02;44.78
18749;BME280;9503;53.560;10.246;2024-03-08T11:59:49;101272.50;;;13.90;46.08
18749;BME280;9503;53.560;10.246;2024-03-08T12:02:16;101266.78;;;14.79;45.38
18749;BME280;9503;53.560;10.246;2024-03-08T12:04:44;101262.25;;;15.63;45.05
18749;BME280;9503;53.560;10.246;2024-03-08T12:07:11;101259.16;;;15.05;46.14
18749;BME280;9503;53.560;10.246;2024-03-08T12:09:40;101254.13;;;14.44;46.60
18749;BME280;9503;53.560;10.246;2024-03-08T12:12:11;101261.28;;;14.92;46.61
18749;BME280;9503;53.560;10.246;2024-03-08T12:14:43;101239.31;;;15.26;44.33
18749;BME280;9503;53.560;10.246;2024-03-08T12:17:10;101246.34;;;15.53;43.88
18749;BME280;9503;53.560;10.246;2024-03-08T12:19:36;101234.47;;;15.58;42.56
18749;BME280;9503;53.560;10.246;2024-03-08T12:22:08;101237.75;;;15.30;43.35
18749;BME280;9503;53.560;10.246;2024-03-08T12:24:35;101236.19;;;15.35;43.24
18749;BME280;9503;53.560;10.246;2024-03-08T12:27:17;101226.84;;;15.14;43.38
18749;BME280;9503;53.560;10.246;2024-03-08T12:29:45;101223.75;;;15.71;43.76
18749;BME280;9503;53.560;10.246;2024-03-08T12:32:12;101221.03;;;16.44;42.23
18749;BME280;9503;53.560;10.246;2024-03-08T12:34:39;101218.13;;;16.61;41.69
18749;BME280;9503;53.560;10.246;2024-03-08T12:37:06;101212.34;;;16.96;42.38
18749;BME280;9503;53.560;10.246;2024-03-08T12:39:35;101207.53;;;15.75;43.66
18749;BME280;9503;53.560;10.246;2024-03-08T12:42:02;101196.94;;;16.72;42.35
18749;BME280;9503;53.560;10.246;2024-03-08T12:44:29;101202.06;;;17.28;42.32
18749;BME280;9503;53.560;10.246;2024-03-08T12:46:57;101193.94;;;17.17;41.21
18749;BME280;9503;53.560;10.246;2024-03-08T12:49:24;101180.31;;;16.66;42.32
18749;BME280;9503;53.560;10.246;2024-03-08T12:51:52;101185.00;;;16.50;42.13
18749;BME280;9503;53.560;10.246;2024-03-08T12:54:19;101174.59;;;15.95;44.25
18749;BME280;9503;53.560;10.246;2024-03-08T12:56:48;101167.38;;;15.37;43.88
18749;BME280;9503;53.560;10.246;2024-03-08T12:59:18;101161.81;;;15.99;44.10
18749;BME280;9503;53.560;10.246;2024-03-08T13:01:47;101169.47;;;16.50;43.11